sensor_id;sensor_type;location;lat;lon;timestamp;temperature;humidity
10155;DHT22;5118;48.570;7.916;2023-02-01T00:01:23;4.70;99.90
10155;DHT22;5118;48.570;7.916;2023-02-01T00:03:51;4.70;99.90
10155;DHT22;5118;48.570;7.916;2023-02-01T00:06:19;4.70;99.90
10155;DHT22;5118;48.570;7.916;2023-02-01T00:08:48;4.70;99.90
10155;DHT22;5118;48.570;7.916;2023-02-01T00:11:16;4.60;99.90
10155;DHT22;5118;48.570;7.916;2023-02-01T00:13:45;4.60;99.90
10155;DHT22;5118;48.570;7.916;2023-02-01T00:16:15;4.60;99.90
10155;DHT22;5118;48.570;7.916;2023-02-01T00:18:44;4.60;99.90
10155;DHT22;5118;48.570;7.916;2023-02-01T00:21:14;4.60;99.90
10155;DHT22;5118;48.570;7.916;2023-02-01T00:23:42;4.60;99.90
10155;DHT22;5118;48.570;7.916;2023-02-01T00:26:14;4.60;99.90
10155;DHT22;5118;48.570;7.916;2023-02-01T00:28:45;4.70;99.90
10155;DHT22;5118;48.570;7.916;2023-02-01T00:31:14;4.70;99.90
10155;DHT22;5118;48.570;7.916;2023-02-01T00:33:42;4.70;99.90
10155;DHT22;5118;48.570;7.916;2023-02-01T00:36:11;4.70;99.90
10155;DHT22;5118;48.570;7.916;2023-02-01T00:38:39;4.70;99.90
10155;DHT22;5118;48.570;7.916;2023-02-01T00:41:11;4.70;99.90
10155;DHT22;5118;48.570;7.916;2023-02-01T00:43:39;4.70;99.90
10155;DHT22;5118;48.570;7.916;2023-02-01T00:46:10;4.80;99.90
10155;DHT22;5118;48.570;7.916;2023-02-01T00:48:39;4.80;99.90
10155;DHT22;5118;48.570;7.916;2023-02-01T00:51:10;4.80;99.90
10155;DHT22;5118;48.570;7.916;2023-02-01T00:53:39;4.80;99.90
10155;DHT22;5118;48.570;7.916;2023-02-01T00:56:08;4.80;99.90
10155;DHT22;5118;48.570;7.916;2023-02-01T00:58:37;4.80;99.90
10155;DHT22;5118;48.570;7.916;2023-02-01T01:01:10;4.80;99.90
10155;DHT22;5118;48.570;7.916;2023-02-01T01:03:42;4.80;99.90
10155;DHT22;5118;48.570;7.916;2023-02-01T01:06:12;4.80;99.90
10155;DHT22;5118;48.570;7.916;2023-02-01T01:08:41;4.90;99.90
10155;DHT22;5118;48.570;7.916;2023-02-01T01:11:12;4.90;99.90
10155;DHT22;5118;48.570;7.916;2023-02-01T01:13:42;4.90;99.90
10155;DHT22;5118;48.570;7.916;2023-02-01T01:16:11;4.90;99.90
10155;DHT22;5118;48.570;7.916;2023-02-01T01:18:40;4.90;99.90
10155;DHT22;5118;48.570;7.916;2023-02-01T01:21:12;4.90;99.90
10155;DHT22;5118;48.570;7.916;2023-02-01T01:23:40;4.90;99.90
10155;DHT22;5118;48.570;7.916;2023-02-01T01:26:10;4.90;99.90
10155;DHT22;5118;48.570;7.916;2023-02-01T01:28:40;4.90;99.90
10155;DHT22;5118;48.570;7.916;2023-02-01T01:31:10;4.90;99.90
10155;DHT22;5118;48.570;7.916;2023-02-01T01:33:39;4.90;99.90
10155;DHT22;5118;48.570;7.916;2023-02-01T01:36:09;4.90;99.90
10155;DHT22;5118;48.570;7.916;2023-02-01T01:38:39;5.00;99.90
10155;DHT22;5118;48.570;7.916;2023-02-01T01:41:08;4.90;99.90
10155;DHT22;5118;48.570;7.916;2023-02-01T01:43:49;5.00;99.90
10155;DHT22;5118;48.570;7.916;2023-02-01T01:46:21;5.00;99.90
10155;DHT22;5118;48.570;7.916;2023-02-01T01:48:53;5.00;99.90
10155;DHT22;5118;48.570;7.916;2023-02-01T01:51:23;5.00;99.90
10155;DHT22;5118;48.570;7.916;2023-02-01T01:53:59;5.00;99.90
10155;DHT22;5118;48.570;7.916;2023-02-01T01:56:29;5.00;99.90
10155;DHT22;5118;48.570;7.916;2023-02-01T01:58:59;5.00;99.90
10155;DHT22;5118;48.570;7.916;2023-02-01T02:01:29;5.00;99.90
10155;DHT22;5118;48.570;7.916;2023-02-01T02:03:58;5.00;99.90
10155;DHT22;5118;48.570;7.916;2023-02-01T02:06:37;5.00;99.90
10155;DHT22;5118;48.570;7.916;2023-02-01T02:09:07;5.00;99.90
10155;DHT22;5118;48.570;7.916;2023-02-01T02:11:35;5.00;99.90
10155;DHT22;5118;48.570;7.916;2023-02-01T02:14:04;5.00;99.90
10155;DHT22;5118;48.570;7.916;2023-02-01T02:16:56;5.00;99.90
10155;DHT22;5118;48.570;7.916;2023-02-01T02:26:07;5.00;99.90
10155;DHT22;5118;48.570;7.916;2023-02-01T02:29:17;5.00;99.90
10155;DHT22;5118;48.570;7.916;2023-02-01T02:32:15;5.00;99.90
10155;DHT22;5118;48.570;7.916;2023-02-01T02:34:52;5.00;99.90
10155;DHT22;5118;48.570;7.916;2023-02-01T02:37:29;5.10;99.90
10155;DHT22;5118;48.570;7.916;2023-02-01T02:40:06;5.00;99.90
10155;DHT22;5118;48.570;7.916;2023-02-01T02:42:39;5.10;99.90
10155;DHT22;5118;48.570;7.916;2023-02-01T02:45:47;5.10;99.90
10155;DHT22;5118;48.570;7.916;2023-02-01T02:48:41;5.10;99.90
10155;DHT22;5118;48.570;7.916;2023-02-01T02:51:14;5.10;99.90
10155;DHT22;5118;48.570;7.916;2023-02-01T02:54:05;5.10;99.90
10155;DHT22;5118;48.570;7.916;2023-02-01T02:56:53;5.10;99.90
10155;DHT22;5118;48.570;7.916;2023-02-01T02:59:42;5.10;99.90
10155;DHT22;5118;48.570;7.916;2023-02-01T03:02:31;5.10;99.90
10155;DHT22;5118;48.570;7.916;2023-02-01T03:05:18;5.10;99.90
10155;DHT22;5118;48.570;7.916;2023-02-01T03:07:55;5.10;99.90
10155;DHT22;5118;48.570;7.916;2023-02-01T03:10:32;5.10;99.90
10155;DHT22;5118;48.570;7.916;2023-02-01T03:13:06;5.20;99.90
10155;DHT22;5118;48.570;7.916;2023-02-01T03:15:38;5.20;99.90
10155;DHT22;5118;48.570;7.916;2023-02-01T03:18:12;5.20;99.90
10155;DHT22;5118;48.570;7.916;2023-02-01T03:20:44;5.10;99.90
10155;DHT22;5118;48.570;7.916;2023-02-01T03:23:18;5.10;99.90
10155;DHT22;5118;48.570;7.916;2023-02-01T03:25:49;5.20;99.90
10155;DHT22;5118;48.570;7.916;2023-02-01T03:28:20;5.20;99.90
10155;DHT22;5118;48.570;7.916;2023-02-01T03:30:50;5.10;99.90
10155;DHT22;5118;48.570;7.916;2023-02-01T03:33:22;5.20;99.90
10155;DHT22;5118;48.570;7.916;2023-02-01T03:35:59;5.20;99.90
10155;DHT22;5118;48.570;7.916;2023-02-01T03:38:33;5.20;99.90
10155;DHT22;5118;48.570;7.916;2023-02-01T03:41:12;5.20;99.90
10155;DHT22;5118;48.570;7.916;2023-02-01T03:43:51;5.20;99.90
10155;DHT22;5118;48.570;7.916;2023-02-01T03:46:24;5.20;99.90
10155;DHT22;5118;48.570;7.916;2023-02-01T03:48:55;5.20;99.90
10155;DHT22;5118;48.570;7.916;2023-02-01T03:51:24;5.20;99.90
10155;DHT22;5118;48.570;7.916;2023-02-01T03:53:55;5.20;99.90
10155;DHT22;5118;48.570;7.916;2023-02-01T03:56:25;5.20;99.90
10155;DHT22;5118;48.570;7.916;2023-02-01T03:58:55;5.20;99.90
10155;DHT22;5118;48.570;7.916;2023-02-01T04:01:32;5.20;99.90
10155;DHT22;5118;48.570;7.916;2023-02-01T04:04:00;5.20;99.90
10155;DHT22;5118;48.570;7.916;2023-02-01T04:06:29;5.20;99.90
10155;DHT22;5118;48.570;7.916;2023-02-01T04:09:03;5.20;99.90
10155;DHT22;5118;48.570;7.916;2023-02-01T04:11:31;5.20;99.90
10155;DHT22;5118;48.570;7.916;2023-02-01T04:13:59;5.20;99.90
10155;DHT22;5118;48.570;7.916;2023-02-01T04:16:31;5.10;99.90
10155;DHT22;5118;48.570;7.916;2023-02-01T04:19:00;5.10;99.90
10155;DHT22;5118;48.570;7.916;2023-02-01T04:21:29;5.10;99.90
10155;DHT22;5118;48.570;7.916;2023-02-01T04:23:57;5.10;99.90
10155;DHT22;5118;48.570;7.916;2023-02-01T04:26:27;5.10;99.90
10155;DHT22;5118;48.570;7.916;2023-02-01T04:28:55;5.20;99.90
10155;DHT22;5118;48.570;7.916;2023-02-01T04:31:23;5.20;99.90
10155;DHT22;5118;48.570;7.916;2023-02-01T04:33:55;5.20;99.90
10155;DHT22;5118;48.570;7.916;2023-02-01T04:36:24;5.10;99.90
10155;DHT22;5118;48.570;7.916;2023-02-01T04:38:52;5.10;99.90
10155;DHT22;5118;48.570;7.916;2023-02-01T04:41:21;5.10;99.90
10155;DHT22;5118;48.570;7.916;2023-02-01T04:43:51;5.10;99.90
10155;DHT22;5118;48.570;7.916;2023-02-01T04:46:20;5.10;99.90
10155;DHT22;5118;48.570;7.916;2023-02-01T04:48:48;5.10;99.90
10155;DHT22;5118;48.570;7.916;2023-02-01T04:51:16;5.10;99.90
10155;DHT22;5118;48.570;7.916;2023-02-01T04:53:44;5.10;99.90
10155;DHT22;5118;48.570;7.916;2023-02-01T04:56:13;5.10;99.90
10155;DHT22;5118;48.570;7.916;2023-02-01T04:58:41;5.10;99.90
10155;DHT22;5118;48.570;7.916;2023-02-01T05:01:10;5.10;99.90
10155;DHT22;5118;48.570;7.916;2023-02-01T05:03:39;5.10;99.90
10155;DHT22;5118;48.570;7.916;2023-02-01T05:06:07;5.10;99.90
10155;DHT22;5118;48.570;7.916;2023-02-01T05:08:35;5.10;99.90
10155;DHT22;5118;48.570;7.916;2023-02-01T05:11:05;5.10;99.90
10155;DHT22;5118;48.570;7.916;2023-02-01T05:13:33;5.10;99.90
10155;DHT22;5118;48.570;7.916;2023-02-01T05:16:16;5.10;99.90
10155;DHT22;5118;48.570;7.916;2023-02-01T05:18:45;5.10;99.90
10155;DHT22;5118;48.570;7.916;2023-02-01T05:21:13;5.20;99.90
10155;DHT22;5118;48.570;7.916;2023-02-01T05:23:41;5.10;99.90
10155;DHT22;5118;48.570;7.916;2023-02-01T05:26:27;5.20;99.90
10155;DHT22;5118;48.570;7.916;2023-02-01T05:28:57;5.10;99.90
10155;DHT22;5118;48.570;7.916;2023-02-01T05:31:26;5.10;99.90
10155;DHT22;5118;48.570;7.916;2023-02-01T05:33:55;5.10;99.90
10155;DHT22;5118;48.570;7.916;2023-02-01T05:36:23;5.10;99.90
10155;DHT22;5118;48.570;7.916;2023-02-01T05:38:51;5.20;99.90
10155;DHT22;5118;48.570;7.916;2023-02-01T05:41:20;5.10;99.90
10155;DHT22;5118;48.570;7.916;2023-02-01T05:43:48;5.10;99.90
10155;DHT22;5118;48.570;7.916;2023-02-01T05:46:16;5.10;99.90
10155;DHT22;5118;48.570;7.916;2023-02-01T05:48:46;5.10;99.90
10155;DHT22;5118;48.570;7.916;2023-02-01T05:51:14;5.10;99.90
10155;DHT22;5118;48.570;7.916;2023-02-01T05:53:43;5.00;99.90
10155;DHT22;5118;48.570;7.916;2023-02-01T05:56:11;5.00;99.90
10155;DHT22;5118;48.570;7.916;2023-02-01T05:58:39;5.00;99.90
10155;DHT22;5118;48.570;7.916;2023-02-01T06:01:07;5.10;99.90
10155;DHT22;5118;48.570;7.916;2023-02-01T06:03:35;5.10;99.90
10155;DHT22;5118;48.570;7.916;2023-02-01T06:06:05;5.10;99.90
10155;DHT22;5118;48.570;7.916;2023-02-01T06:08:34;5.10;99.90
10155;DHT22;5118;48.570;7.916;2023-02-01T06:11:04;5.10;99.90
10155;DHT22;5118;48.570;7.916;2023-02-01T06:13:32;5.10;99.90
10155;DHT22;5118;48.570;7.916;2023-02-01T06:16:01;5.00;99.90
10155;DHT22;5118;48.570;7.916;2023-02-01T06:18:30;5.00;99.90
10155;DHT22;5118;48.570;7.916;2023-02-01T06:21:00;4.90;99.90
10155;DHT22;5118;48.570;7.916;2023-02-01T06:23:30;4.80;99.90
10155;DHT22;5118;48.570;7.916;2023-02-01T06:26:00;4.70;99.90
10155;DHT22;5118;48.570;7.916;2023-02-01T06:28:28;4.60;99.90
10155;DHT22;5118;48.570;7.916;2023-02-01T06:30:57;4.60;99.90
10155;DHT22;5118;48.570;7.916;2023-02-01T06:33:25;4.60;99.90
10155;DHT22;5118;48.570;7.916;2023-02-01T06:35:57;4.60;99.90
10155;DHT22;5118;48.570;7.916;2023-02-01T06:38:26;4.60;99.90
10155;DHT22;5118;48.570;7.916;2023-02-01T06:40:57;4.60;99.90
10155;DHT22;5118;48.570;7.916;2023-02-01T06:43:27;4.60;99.90
10155;DHT22;5118;48.570;7.916;2023-02-01T06:45:59;4.60;99.90
10155;DHT22;5118;48.570;7.916;2023-02-01T06:48:28;4.60;99.90
10155;DHT22;5118;48.570;7.916;2023-02-01T06:50:57;4.60;99.90
10155;DHT22;5118;48.570;7.916;2023-02-01T06:53:25;4.60;99.90
10155;DHT22;5118;48.570;7.916;2023-02-01T06:55:56;4.50;99.90
10155;DHT22;5118;48.570;7.916;2023-02-01T06:58:28;4.60;99.90
10155;DHT22;5118;48.570;7.916;2023-02-01T07:00:57;4.60;99.90
10155;DHT22;5118;48.570;7.916;2023-02-01T07:03:25;4.60;99.90
10155;DHT22;5118;48.570;7.916;2023-02-01T07:05:55;4.60;99.90
10155;DHT22;5118;48.570;7.916;2023-02-01T07:08:26;4.60;99.90
10155;DHT22;5118;48.570;7.916;2023-02-01T07:10:56;4.60;99.90
10155;DHT22;5118;48.570;7.916;2023-02-01T07:13:25;4.60;99.90
10155;DHT22;5118;48.570;7.916;2023-02-01T07:15:53;4.60;99.90
10155;DHT22;5118;48.570;7.916;2023-02-01T07:18:21;4.60;99.90
10155;DHT22;5118;48.570;7.916;2023-02-01T07:20:50;4.60;99.90
10155;DHT22;5118;48.570;7.916;2023-02-01T07:23:19;4.60;99.90
10155;DHT22;5118;48.570;7.916;2023-02-01T07:25:47;4.60;99.90
10155;DHT22;5118;48.570;7.916;2023-02-01T07:28:17;4.60;99.90
10155;DHT22;5118;48.570;7.916;2023-02-01T07:30:45;4.60;99.90
10155;DHT22;5118;48.570;7.916;2023-02-01T07:33:19;4.60;99.90
10155;DHT22;5118;48.570;7.916;2023-02-01T07:35:48;4.70;99.90
10155;DHT22;5118;48.570;7.916;2023-02-01T07:38:17;4.70;99.90
10155;DHT22;5118;48.570;7.916;2023-02-01T07:40:46;4.70;99.90
10155;DHT22;5118;48.570;7.916;2023-02-01T07:43:14;4.70;99.90
10155;DHT22;5118;48.570;7.916;2023-02-01T07:45:50;4.70;99.90
10155;DHT22;5118;48.570;7.916;2023-02-01T07:48:19;4.70;99.90
10155;DHT22;5118;48.570;7.916;2023-02-01T07:50:48;4.80;99.90
10155;DHT22;5118;48.570;7.916;2023-02-01T07:53:17;4.80;99.90
10155;DHT22;5118;48.570;7.916;2023-02-01T07:55:45;4.80;99.90
10155;DHT22;5118;48.570;7.916;2023-02-01T07:58:14;4.80;99.90
10155;DHT22;5118;48.570;7.916;2023-02-01T08:00:44;4.90;99.90
10155;DHT22;5118;48.570;7.916;2023-02-01T08:03:30;4.90;99.90
10155;DHT22;5118;48.570;7.916;2023-02-01T08:05:58;4.90;99.90
10155;DHT22;5118;48.570;7.916;2023-02-01T08:08:26;4.90;99.90
10155;DHT22;5118;48.570;7.916;2023-02-01T08:10:57;4.90;99.90
10155;DHT22;5118;48.570;7.916;2023-02-01T08:13:25;4.90;99.90
10155;DHT22;5118;48.570;7.916;2023-02-01T08:15:59;5.00;99.90
10155;DHT22;5118;48.570;7.916;2023-02-01T08:18:27;5.00;99.90
10155;DHT22;5118;48.570;7.916;2023-02-01T08:20:56;5.00;99.90
10155;DHT22;5118;48.570;7.916;2023-02-01T08:23:24;5.00;99.90
10155;DHT22;5118;48.570;7.916;2023-02-01T08:25:52;5.10;99.90
10155;DHT22;5118;48.570;7.916;2023-02-01T08:28:21;5.10;99.90
10155;DHT22;5118;48.570;7.916;2023-02-01T08:30:49;5.10;99.90
10155;DHT22;5118;48.570;7.916;2023-02-01T08:33:19;5.20;99.90
10155;DHT22;5118;48.570;7.916;2023-02-01T08:35:47;5.30;99.90
10155;DHT22;5118;48.570;7.916;2023-02-01T08:38:15;5.30;99.90
10155;DHT22;5118;48.570;7.916;2023-02-01T08:40:43;5.40;99.90
10155;DHT22;5118;48.570;7.916;2023-02-01T08:43:13;5.50;99.90
10155;DHT22;5118;48.570;7.916;2023-02-01T08:45:41;5.50;99.90
10155;DHT22;5118;48.570;7.916;2023-02-01T08:48:09;5.50;99.90
10155;DHT22;5118;48.570;7.916;2023-02-01T08:50:39;5.50;99.90
10155;DHT22;5118;48.570;7.916;2023-02-01T08:53:07;5.50;99.90
10155;DHT22;5118;48.570;7.916;2023-02-01T08:55:35;5.50;99.90
10155;DHT22;5118;48.570;7.916;2023-02-01T08:58:03;5.50;99.90
10155;DHT22;5118;48.570;7.916;2023-02-01T09:00:32;5.50;99.90
10155;DHT22;5118;48.570;7.916;2023-02-01T09:03:00;5.60;99.90
10155;DHT22;5118;48.570;7.916;2023-02-01T09:05:28;5.70;99.90
10155;DHT22;5118;48.570;7.916;2023-02-01T09:08:16;5.70;99.90
10155;DHT22;5118;48.570;7.916;2023-02-01T09:10:45;5.80;99.90
10155;DHT22;5118;48.570;7.916;2023-02-01T09:13:14;5.90;99.90
10155;DHT22;5118;48.570;7.916;2023-02-01T09:15:42;5.90;99.90
10155;DHT22;5118;48.570;7.916;2023-02-01T09:18:10;5.90;99.90
10155;DHT22;5118;48.570;7.916;2023-02-01T09:20:38;5.90;99.90
10155;DHT22;5118;48.570;7.916;2023-02-01T09:23:07;6.00;99.90
10155;DHT22;5118;48.570;7.916;2023-02-01T09:25:38;6.00;99.90
10155;DHT22;5118;48.570;7.916;2023-02-01T09:28:06;6.00;99.90
10155;DHT22;5118;48.570;7.916;2023-02-01T09:30:36;6.10;99.90
10155;DHT22;5118;48.570;7.916;2023-02-01T09:33:05;6.10;99.90
10155;DHT22;5118;48.570;7.916;2023-02-01T09:35:33;6.10;99.90
10155;DHT22;5118;48.570;7.916;2023-02-01T09:38:01;6.10;99.90
10155;DHT22;5118;48.570;7.916;2023-02-01T09:40:30;6.10;99.90
10155;DHT22;5118;48.570;7.916;2023-02-01T09:43:12;6.10;99.90
10155;DHT22;5118;48.570;7.916;2023-02-01T09:45:51;6.10;99.90
10155;DHT22;5118;48.570;7.916;2023-02-01T09:48:26;6.20;99.90
10155;DHT22;5118;48.570;7.916;2023-02-01T09:50:59;6.20;99.90
10155;DHT22;5118;48.570;7.916;2023-02-01T09:53:30;6.20;99.90
10155;DHT22;5118;48.570;7.916;2023-02-01T09:56:05;6.20;99.90
10155;DHT22;5118;48.570;7.916;2023-02-01T09:58:37;6.10;99.90
10155;DHT22;5118;48.570;7.916;2023-02-01T10:01:12;6.10;99.90
10155;DHT22;5118;48.570;7.916;2023-02-01T10:03:43;6.20;99.90
10155;DHT22;5118;48.570;7.916;2023-02-01T10:06:35;6.20;99.90
10155;DHT22;5118;48.570;7.916;2023-02-01T10:09:19;6.20;99.90
10155;DHT22;5118;48.570;7.916;2023-02-01T10:15:15;6.30;99.90
10155;DHT22;5118;48.570;7.916;2023-02-01T10:17:57;6.40;99.90
10155;DHT22;5118;48.570;7.916;2023-02-01T10:20:33;6.60;99.90
10155;DHT22;5118;48.570;7.916;2023-02-01T10:23:16;6.70;99.90
10155;DHT22;5118;48.570;7.916;2023-02-01T10:26:05;6.70;99.90
10155;DHT22;5118;48.570;7.916;2023-02-01T10:28:37;6.80;99.90
10155;DHT22;5118;48.570;7.916;2023-02-01T10:31:09;6.80;99.90
10155;DHT22;5118;48.570;7.916;2023-02-01T10:33:41;6.90;99.90
10155;DHT22;5118;48.570;7.916;2023-02-01T10:36:15;6.90;99.90
10155;DHT22;5118;48.570;7.916;2023-02-01T10:38:45;7.00;99.90
10155;DHT22;5118;48.570;7.916;2023-02-01T10:41:16;7.00;99.90
10155;DHT22;5118;48.570;7.916;2023-02-01T10:43:49;7.00;99.90
10155;DHT22;5118;48.570;7.916;2023-02-01T10:46:20;7.10;99.90
10155;DHT22;5118;48.570;7.916;2023-02-01T10:48:48;7.10;99.90
10155;DHT22;5118;48.570;7.916;2023-02-01T10:51:22;7.10;99.90
10155;DHT22;5118;48.570;7.916;2023-02-01T10:53:55;7.00;99.90
10155;DHT22;5118;48.570;7.916;2023-02-01T10:56:26;7.00;99.90
10155;DHT22;5118;48.570;7.916;2023-02-01T10:59:00;7.00;99.90
10155;DHT22;5118;48.570;7.916;2023-02-01T11:01:36;7.00;99.90
10155;DHT22;5118;48.570;7.916;2023-02-01T11:04:09;7.00;99.90
10155;DHT22;5118;48.570;7.916;2023-02-01T11:06:39;7.00;99.90
10155;DHT22;5118;48.570;7.916;2023-02-01T11:09:18;7.00;99.90
10155;DHT22;5118;48.570;7.916;2023-02-01T11:11:56;7.00;99.90
10155;DHT22;5118;48.570;7.916;2023-02-01T11:14:35;7.00;99.90
10155;DHT22;5118;48.570;7.916;2023-02-01T11:17:25;7.00;99.90
10155;DHT22;5118;48.570;7.916;2023-02-01T11:19:57;7.10;99.90
10155;DHT22;5118;48.570;7.916;2023-02-01T11:22:27;7.10;99.90
10155;DHT22;5118;48.570;7.916;2023-02-01T11:24:57;7.10;99.90
10155;DHT22;5118;48.570;7.916;2023-02-01T11:27:25;7.10;99.90
10155;DHT22;5118;48.570;7.916;2023-02-01T11:29:58;7.10;99.90
10155;DHT22;5118;48.570;7.916;2023-02-01T11:32:30;7.10;99.90
10155;DHT22;5118;48.570;7.916;2023-02-01T11:35:02;7.10;99.90
10155;DHT22;5118;48.570;7.916;2023-02-01T11:37:34;7.10;99.90
10155;DHT22;5118;48.570;7.916;2023-02-01T11:40:23;7.10;99.90
10155;DHT22;5118;48.570;7.916;2023-02-01T11:42:55;7.00;99.90
10155;DHT22;5118;48.570;7.916;2023-02-01T11:45:27;6.90;99.90
10155;DHT22;5118;48.570;7.916;2023-02-01T11:47:58;6.90;99.90
10155;DHT22;5118;48.570;7.916;2023-02-01T11:50:35;6.80;99.90
10155;DHT22;5118;48.570;7.916;2023-02-01T11:53:25;6.70;99.90
10155;DHT22;5118;48.570;7.916;2023-02-01T11:56:05;6.70;99.90
10155;DHT22;5118;48.570;7.916;2023-02-01T11:59:03;6.60;99.90
10155;DHT22;5118;48.570;7.916;2023-02-01T12:01:52;6.60;99.90
10155;DHT22;5118;48.570;7.916;2023-02-01T12:04:59;6.60;99.90
10155;DHT22;5118;48.570;7.916;2023-02-01T12:07:40;6.60;99.90
10155;DHT22;5118;48.570;7.916;2023-02-01T12:10:26;6.60;99.90
10155;DHT22;5118;48.570;7.916;2023-02-01T12:13:05;6.60;99.90
10155;DHT22;5118;48.570;7.916;2023-02-01T12:15:52;6.60;99.90
10155;DHT22;5118;48.570;7.916;2023-02-01T12:18:48;6.60;99.90
10155;DHT22;5118;48.570;7.916;2023-02-01T12:21:32;6.70;99.90
10155;DHT22;5118;48.570;7.916;2023-02-01T12:24:21;6.70;99.90
10155;DHT22;5118;48.570;7.916;2023-02-01T12:27:04;6.90;99.90
10155;DHT22;5118;48.570;7.916;2023-02-01T12:29:49;6.90;99.90
10155;DHT22;5118;48.570;7.916;2023-02-01T12:32:29;6.90;99.90
10155;DHT22;5118;48.570;7.916;2023-02-01T12:35:15;7.00;99.90
10155;DHT22;5118;48.570;7.916;2023-02-01T12:38:03;7.00;99.90
10155;DHT22;5118;48.570;7.916;2023-02-01T12:40:49;7.00;99.90
10155;DHT22;5118;48.570;7.916;2023-02-01T12:43:22;7.00;99.90
10155;DHT22;5118;48.570;7.916;2023-02-01T12:45:56;7.00;99.90
10155;DHT22;5118;48.570;7.916;2023-02-01T12:48:29;6.90;99.90
10155;DHT22;5118;48.570;7.916;2023-02-01T12:51:02;6.90;99.90
10155;DHT22;5118;48.570;7.916;2023-02-01T12:53:42;6.90;99.90
10155;DHT22;5118;48.570;7.916;2023-02-01T12:56:19;6.90;99.90
10155;DHT22;5118;48.570;7.916;2023-02-01T12:58:51;7.00;99.90
10155;DHT22;5118;48.570;7.916;2023-02-01T13:01:25;7.00;99.90
10155;DHT22;5118;48.570;7.916;2023-02-01T13:04:01;7.10;99.90
10155;DHT22;5118;48.570;7.916;2023-02-01T13:06:35;7.10;99.90
10155;DHT22;5118;48.570;7.916;2023-02-01T13:09:14;7.00;99.90
10155;DHT22;5118;48.570;7.916;2023-02-01T13:11:43;7.00;99.90
10155;DHT22;5118;48.570;7.916;2023-02-01T13:14:22;7.20;99.90
10155;DHT22;5118;48.570;7.916;2023-02-01T13:16:56;7.30;99.90
10155;DHT22;5118;48.570;7.916;2023-02-01T13:19:28;7.30;99.90
10155;DHT22;5118;48.570;7.916;2023-02-01T13:22:03;7.40;99.90
10155;DHT22;5118;48.570;7.916;2023-02-01T13:24:39;7.30;99.90
10155;DHT22;5118;48.570;7.916;2023-02-01T13:27:11;7.40;99.90
10155;DHT22;5118;48.570;7.916;2023-02-01T13:29:46;7.30;99.90
10155;DHT22;5118;48.570;7.916;2023-02-01T13:32:40;7.40;99.90
10155;DHT22;5118;48.570;7.916;2023-02-01T13:35:49;7.40;99.90
10155;DHT22;5118;48.570;7.916;2023-02-01T13:38:44;7.30;99.90
10155;DHT22;5118;48.570;7.916;2023-02-01T13:41:25;7.40;99.90
10155;DHT22;5118;48.570;7.916;2023-02-01T13:43:59;7.30;99.90
10155;DHT22;5118;48.570;7.916;2023-02-01T13:46:29;7.30;99.90
10155;DHT22;5118;48.570;7.916;2023-02-01T13:49:00;7.30;99.90
10155;DHT22;5118;48.570;7.916;2023-02-01T13:51:37;7.30;99.90
10155;DHT22;5118;48.570;7.916;2023-02-01T13:54:05;7.30;99.90
10155;DHT22;5118;48.570;7.916;2023-02-01T13:56:42;7.30;99.90
10155;DHT22;5118;48.570;7.916;2023-02-01T14:02:45;7.00;99.90
10155;DHT22;5118;48.570;7.916;2023-02-01T14:08:23;6.60;99.90
10155;DHT22;5118;48.570;7.916;2023-02-01T14:10:53;6.50;99.90
10155;DHT22;5118;48.570;7.916;2023-02-01T14:13:27;6.40;99.90
10155;DHT22;5118;48.570;7.916;2023-02-01T14:16:14;6.40;99.90
10155;DHT22;5118;48.570;7.916;2023-02-01T14:19:07;6.40;99.90
10155;DHT22;5118;48.570;7.916;2023-02-01T14:21:47;6.50;99.90
10155;DHT22;5118;48.570;7.916;2023-02-01T14:24:20;6.60;99.90
10155;DHT22;5118;48.570;7.916;2023-02-01T14:26:51;6.60;99.90
10155;DHT22;5118;48.570;7.916;2023-02-01T14:29:30;6.70;99.90
10155;DHT22;5118;48.570;7.916;2023-02-01T14:32:03;6.80;99.90
10155;DHT22;5118;48.570;7.916;2023-02-01T14:34:38;6.80;99.90
10155;DHT22;5118;48.570;7.916;2023-02-01T14:37:13;6.80;99.90
10155;DHT22;5118;48.570;7.916;2023-02-01T14:39:57;6.90;99.90
10155;DHT22;5118;48.570;7.916;2023-02-01T14:42:32;6.90;99.90
10155;DHT22;5118;48.570;7.916;2023-02-01T14:51:24;7.00;99.90
10155;DHT22;5118;48.570;7.916;2023-02-01T14:53:52;7.00;99.90
10155;DHT22;5118;48.570;7.916;2023-02-01T14:56:21;7.00;99.90
10155;DHT22;5118;48.570;7.916;2023-02-01T14:58:55;7.00;99.90
10155;DHT22;5118;48.570;7.916;2023-02-01T15:01:28;7.00;99.90
10155;DHT22;5118;48.570;7.916;2023-02-01T15:04:03;7.10;99.90
10155;DHT22;5118;48.570;7.916;2023-02-01T15:06:38;7.10;99.90
10155;DHT22;5118;48.570;7.916;2023-02-01T15:09:10;7.10;99.90
10155;DHT22;5118;48.570;7.916;2023-02-01T15:11:59;7.10;99.90
10155;DHT22;5118;48.570;7.916;2023-02-01T15:14:31;7.10;99.90
10155;DHT22;5118;48.570;7.916;2023-02-01T15:17:00;7.10;99.90
10155;DHT22;5118;48.570;7.916;2023-02-01T15:19:29;7.20;99.90
10155;DHT22;5118;48.570;7.916;2023-02-01T15:22:01;7.10;99.90
10155;DHT22;5118;48.570;7.916;2023-02-01T15:24:30;7.10;99.90
10155;DHT22;5118;48.570;7.916;2023-02-01T15:27:03;7.10;99.90
10155;DHT22;5118;48.570;7.916;2023-02-01T15:29:32;7.00;99.90
10155;DHT22;5118;48.570;7.916;2023-02-01T15:32:01;7.00;99.90
10155;DHT22;5118;48.570;7.916;2023-02-01T15:34:45;7.00;99.90
10155;DHT22;5118;48.570;7.916;2023-02-01T15:37:16;7.00;99.90
10155;DHT22;5118;48.570;7.916;2023-02-01T15:40:05;7.00;99.90
10155;DHT22;5118;48.570;7.916;2023-02-01T15:42:51;7.00;99.90
10155;DHT22;5118;48.570;7.916;2023-02-01T15:45:21;7.00;99.90
10155;DHT22;5118;48.570;7.916;2023-02-01T15:47:56;7.00;99.90
10155;DHT22;5118;48.570;7.916;2023-02-01T15:50:26;7.10;99.90
10155;DHT22;5118;48.570;7.916;2023-02-01T15:52:58;7.10;99.90
10155;DHT22;5118;48.570;7.916;2023-02-01T15:55:34;7.10;99.90
10155;DHT22;5118;48.570;7.916;2023-02-01T15:58:05;7.10;99.90
10155;DHT22;5118;48.570;7.916;2023-02-01T16:00:42;7.10;99.90
10155;DHT22;5118;48.570;7.916;2023-02-01T16:03:26;7.00;99.90
10155;DHT22;5118;48.570;7.916;2023-02-01T16:05:57;7.00;99.90
10155;DHT22;5118;48.570;7.916;2023-02-01T16:08:28;7.00;99.90
10155;DHT22;5118;48.570;7.916;2023-02-01T16:11:01;7.00;99.90
10155;DHT22;5118;48.570;7.916;2023-02-01T16:13:29;7.00;99.90
10155;DHT22;5118;48.570;7.916;2023-02-01T16:15:57;7.00;99.90
10155;DHT22;5118;48.570;7.916;2023-02-01T16:18:26;7.00;99.90
10155;DHT22;5118;48.570;7.916;2023-02-01T16:20:54;7.00;99.90
10155;DHT22;5118;48.570;7.916;2023-02-01T16:23:23;7.10;99.90
10155;DHT22;5118;48.570;7.916;2023-02-01T16:25:52;7.00;99.90
10155;DHT22;5118;48.570;7.916;2023-02-01T16:28:21;7.00;99.90
10155;DHT22;5118;48.570;7.916;2023-02-01T16:30:49;7.00;99.90
10155;DHT22;5118;48.570;7.916;2023-02-01T16:33:19;7.10;99.90
10155;DHT22;5118;48.570;7.916;2023-02-01T16:35:50;7.10;99.90
10155;DHT22;5118;48.570;7.916;2023-02-01T16:38:19;7.10;99.90
10155;DHT22;5118;48.570;7.916;2023-02-01T16:40:51;7.10;99.90
10155;DHT22;5118;48.570;7.916;2023-02-01T16:43:21;7.10;99.90
10155;DHT22;5118;48.570;7.916;2023-02-01T16:45:52;7.10;99.90
10155;DHT22;5118;48.570;7.916;2023-02-01T16:48:22;7.10;99.90
10155;DHT22;5118;48.570;7.916;2023-02-01T16:50:53;7.00;99.90
10155;DHT22;5118;48.570;7.916;2023-02-01T16:53:24;7.00;99.90
10155;DHT22;5118;48.570;7.916;2023-02-01T16:55:56;7.00;99.90
10155;DHT22;5118;48.570;7.916;2023-02-01T16:58:26;7.00;99.90
10155;DHT22;5118;48.570;7.916;2023-02-01T17:00:54;7.00;99.90
10155;DHT22;5118;48.570;7.916;2023-02-01T17:03:23;7.00;99.90